createdAt,value
2022-11-17T05:53:14.116Z,4.47
2022-11-17T05:58:27.290Z,6.20
2022-11-17T06:03:38.132Z,4.68
2022-11-17T06:08:42.593Z,5.95
2022-11-17T06:13:45.394Z,6.15
2022-11-17T06:19:00.986Z,7.25
2022-11-17T06:24:06.984Z,7.57
2022-11-17T06:29:12.511Z,7.03
2022-11-17T06:34:15.416Z,7.25
2022-11-17T06:39:18.243Z,5.85
2022-11-17T06:44:21.043Z,7.43
2022-11-17T06:49:23.893Z,7.38
2022-11-17T06:54:26.803Z,7.82
2022-11-17T06:59:30.012Z,6.78
2022-11-17T07:04:32.907Z,7.38
2022-11-17T07:09:36.628Z,6.65
2022-11-17T07:14:39.481Z,7.72
2022-11-17T07:19:42.359Z,7.65
2022-11-17T07:24:45.298Z,7.78
2022-11-17T07:29:48.127Z,10.23
2022-11-17T07:34:51.394Z,13.98
2022-11-17T07:39:54.326Z,13.40
2022-11-17T07:44:57.189Z,8.30
2022-11-17T07:50:00.788Z,6.82
2022-11-17T07:55:03.709Z,6.20
2022-11-17T08:00:07.230Z,5.50
2022-11-17T08:05:17.562Z,5.78
2022-11-17T08:10:20.622Z,6.07
2022-11-17T08:15:23.483Z,5.78
2022-11-17T08:20:27.921Z,9.77
2022-11-17T08:25:32.136Z,4.60
2022-11-17T08:30:36.181Z,5.15
2022-11-17T08:35:39.073Z,4.43
2022-11-17T08:40:42.877Z,3.78
2022-11-17T08:45:45.644Z,3.47
2022-11-17T08:50:48.925Z,4.43
2022-11-17T08:55:52.294Z,3.53
2022-11-17T09:00:57.601Z,3.45
2022-11-17T09:06:06.425Z,3.17
2022-11-17T09:11:11.505Z,4.15
2022-11-17T09:16:15.367Z,3.38
2022-11-17T09:21:18.205Z,3.47
2022-11-17T09:26:21.152Z,2.92
2022-11-17T09:31:24.084Z,3.03
2022-11-17T09:36:27.241Z,3.00
2022-11-17T09:41:41.226Z,2.92
2022-11-17T09:46:56.655Z,2.58
2022-11-17T09:52:16.150Z,4.43
2022-11-17T09:57:27.739Z,3.55
2022-11-17T10:02:30.931Z,3.58
2022-11-17T10:07:36.099Z,4.50
2022-11-17T10:12:47.908Z,4.32
2022-11-17T10:17:51.740Z,4.55
2022-11-17T10:22:56.049Z,4.47
2022-11-17T10:27:58.839Z,3.88
2022-11-17T10:33:05.752Z,4.20
2022-11-17T10:38:08.704Z,4.07
2022-11-17T10:43:14.484Z,4.32
2022-11-17T10:48:36.903Z,4.22
2022-11-17T10:53:46.807Z,5.10
2022-11-17T10:58:59.424Z,5.63
2022-11-17T11:04:04.078Z,3.33
2022-11-17T11:09:20.519Z,3.72
2022-11-17T11:14:33.611Z,4.53
2022-11-17T11:19:36.551Z,2.60
2022-11-17T11:24:50.308Z,2.95
2022-11-17T11:35:33.745Z,3.95
2022-11-17T11:40:40.519Z,3.90
2022-11-17T11:46:01.710Z,2.67
2022-11-17T11:51:11.947Z,2.65
2022-11-17T11:56:19.001Z,4.25
2022-11-17T12:01:23.472Z,3.25
2022-11-17T12:06:41.036Z,3.72
2022-11-17T12:12:03.380Z,3.85
2022-11-17T12:17:07.944Z,4.10
2022-11-17T12:22:23.136Z,3.42
2022-11-17T12:27:34.982Z,4.85
2022-11-17T12:32:46.883Z,6.00
2022-11-17T12:37:49.731Z,7.32
2022-11-17T12:43:17.160Z,8.90
2022-11-17T12:48:35.128Z,8.45
2022-11-17T12:54:04.713Z,9.82
2022-11-17T12:59:32.191Z,9.75
2022-11-17T13:04:49.287Z,11.82
2022-11-17T13:09:58.360Z,10.48
2022-11-17T13:15:03.197Z,10.07
2022-11-17T13:20:27.198Z,9.60
2022-11-17T13:25:30.093Z,11.70
2022-11-17T13:30:33.695Z,13.77
2022-11-17T13:35:36.980Z,13.50
